Arnot, Pennsylvania
Current Conditions -  °F | °C
As of 6:15 PM on Saturday 25 Oct 2014 (Local Time) from KN38 Reporting Station
Broken Clouds Broken Clouds  
Wind Chill: 15°   Ceiling: 4500
Heat Index: 15°   Visibility: 10mi
Dew Point:   Wind: 9mph
Humidity: 63%   Direction: 220°SW
Pressure: 29.66"   Gusts: 16mph
Location:  41.66°N, 77.12°W
Report Text: KN38 252215Z AUTO 22008G14KT 10SM SCT039 BKN045 BKN060 15/08 A2966 RMK AO2
Loading
Personal Weather Stations






























Interactive Weather Map
Tropical Storm Tracking
New forecast layout! Learn more

10-Day Weather Forecast

Advertisements
Track Severe Weather on mobile